createdAt,value
2022-09-13T10:58:57.762Z,14528.00
2022-09-13T10:59:57.672Z,14788.00
2022-09-13T11:00:57.724Z,15016.00
2022-09-13T11:01:57.645Z,15312.00
2022-09-13T11:02:57.620Z,15620.00
2022-09-13T11:03:57.651Z,15860.00
2022-09-13T11:04:57.606Z,16064.00
2022-09-13T11:05:57.593Z,16232.00
2022-09-13T11:07:01.670Z,16448.00
2022-09-13T11:07:57.560Z,16608.00
2022-09-13T11:08:57.544Z,16864.00
2022-09-13T11:09:57.542Z,16960.00
2022-09-13T11:10:57.544Z,16992.00
2022-09-13T11:11:57.508Z,17056.00
2022-09-13T11:12:57.496Z,17152.00
2022-09-13T11:13:57.496Z,17280.00
2022-09-13T11:14:57.470Z,17376.00
2022-09-13T11:15:57.479Z,17472.00
2022-09-13T11:16:57.492Z,17632.00
2022-09-13T11:17:57.435Z,17760.00
2022-09-13T11:18:57.422Z,17792.00
2022-09-13T11:19:57.545Z,17792.00
2022-09-13T11:20:57.406Z,17600.00
2022-09-13T11:21:57.397Z,17376.00
2022-09-13T11:22:57.375Z,17184.00
2022-09-13T11:23:57.374Z,16960.00
2022-09-13T11:24:57.358Z,16864.00
2022-09-13T11:25:57.360Z,16608.00
2022-09-13T11:26:57.329Z,16224.00
2022-09-13T11:27:57.331Z,15996.00
2022-09-13T11:28:57.337Z,15804.00
2022-09-13T11:29:57.299Z,15680.00
2022-09-13T11:30:57.368Z,15700.00
2022-09-13T11:31:57.352Z,15744.00
2022-09-13T11:32:57.271Z,15752.00
2022-09-13T11:33:57.265Z,16036.00
2022-09-13T11:34:57.237Z,16152.00
2022-09-13T11:35:57.252Z,16352.00
2022-09-13T11:36:57.222Z,16576.00
2022-09-13T11:37:57.214Z,18656.00
2022-09-13T11:38:57.193Z,29824.00
2022-09-13T11:39:57.263Z,43936.00
2022-09-13T11:40:57.191Z,50304.00
2022-09-13T11:41:57.851Z,53504.00
2022-09-13T11:42:57.151Z,53376.00
2022-09-13T11:43:57.139Z,55424.00
2022-09-13T11:44:57.138Z,53120.00
2022-09-13T11:45:57.216Z,46560.00
2022-09-13T11:46:57.107Z,34272.00
2022-09-13T11:47:57.110Z,41024.00
2022-09-13T11:48:57.094Z,49664.00
2022-09-13T11:49:57.087Z,23840.00
2022-09-13T11:50:57.090Z,20256.00
2022-09-13T11:51:57.066Z,52384.00
2022-09-13T11:52:57.067Z,26848.00
2022-09-13T11:53:57.042Z,15752.00
2022-09-13T11:54:57.025Z,24448.00
2022-09-13T11:55:57.029Z,19360.00
2022-09-13T11:56:57.022Z,60096.00
2022-09-13T11:57:57.007Z,63936.00
2022-09-13T11:58:56.983Z,49088.00
2022-09-13T11:59:56.987Z,54368.00
2022-09-13T12:00:56.971Z,61792.00
2022-09-13T12:01:57.016Z,62208.00
2022-09-13T12:02:57.257Z,67680.00
2022-09-13T12:03:56.933Z,69888.00
2022-09-13T12:05:20.493Z,30112.00
2022-09-13T12:05:56.933Z,18656.00
2022-09-13T12:06:56.900Z,35456.00
2022-09-13T12:07:56.903Z,26880.00
2022-09-13T12:08:56.893Z,66272.00
2022-09-13T12:09:56.874Z,65984.00
2022-09-13T12:10:56.875Z,64352.00
2022-09-13T12:11:56.853Z,25888.00
2022-09-13T12:12:56.841Z,16032.00
2022-09-13T12:13:56.859Z,25824.00
2022-09-13T12:14:56.829Z,19200.00
2022-09-13T12:15:56.863Z,21728.00
2022-09-13T12:16:56.817Z,21024.00
2022-09-13T12:17:56.790Z,50272.00
2022-09-13T12:18:56.790Z,40736.00
2022-09-13T12:19:56.785Z,34304.00
2022-09-13T12:20:56.782Z,35776.00
2022-09-13T12:21:56.762Z,41440.00
2022-09-13T12:22:56.741Z,34368.00
2022-09-13T12:23:56.741Z,39360.00
2022-09-13T12:24:56.722Z,45280.00
2022-09-13T12:25:56.725Z,48256.00
2022-09-13T12:26:56.711Z,56416.00
2022-09-13T12:27:56.693Z,57824.00
2022-09-13T12:28:56.692Z,60448.00
2022-09-13T12:29:56.675Z,52000.00
2022-09-13T12:30:56.686Z,43200.00
2022-09-13T12:31:56.670Z,30464.00
2022-09-13T12:32:58.993Z,41792.00
2022-09-13T12:33:56.652Z,46560.00
2022-09-13T12:34:56.941Z,50368.00
2022-09-13T12:35:56.627Z,47584.00
2022-09-13T12:36:56.619Z,52736.00
2022-09-13T12:37:56.606Z,47680.00
2022-09-13T12:38:56.598Z,43456.00
2022-09-13T12:39:56.634Z,40992.00
2022-09-13T12:40:56.578Z,36416.00
2022-09-13T12:41:56.573Z,27808.00
2022-09-13T12:42:56.555Z,28640.00
2022-09-13T12:43:56.556Z,33024.00
2022-09-13T12:44:56.533Z,39904.00
2022-09-13T12:45:56.661Z,41344.00
2022-09-13T12:46:56.528Z,50688.00
2022-09-13T12:47:56.518Z,60800.00
2022-09-13T12:48:56.497Z,38304.00
2022-09-13T12:49:58.890Z,54496.00
2022-09-13T12:50:56.487Z,58208.00
2022-09-13T12:51:56.493Z,63616.00
2022-09-13T12:52:56.464Z,70752.00
2022-09-13T12:53:56.453Z,51712.00
2022-09-13T12:54:56.451Z,50400.00
2022-09-13T12:56:04.397Z,68896.00
2022-09-13T12:56:57.267Z,39840.00
2022-09-13T12:57:56.423Z,57920.00
2022-09-13T12:58:56.409Z,26912.00
2022-09-13T12:59:56.398Z,44736.00
2022-09-13T13:00:56.479Z,26656.00
2022-09-13T13:01:56.537Z,47648.00
2022-09-13T13:02:56.388Z,39008.00
2022-09-13T13:03:56.373Z,43584.00
2022-09-13T13:04:56.377Z,45248.00
2022-09-13T13:05:56.372Z,39392.00
2022-09-13T13:06:56.366Z,60928.00
2022-09-13T13:07:56.347Z,46336.00
2022-09-13T13:08:56.339Z,44736.00
2022-09-13T13:09:56.344Z,55136.00
2022-09-13T13:10:56.332Z,50752.00
2022-09-13T13:11:56.330Z,71040.00
2022-09-13T13:12:56.329Z,66528.00
2022-09-13T13:13:56.316Z,59712.00
2022-09-13T13:14:56.297Z,67488.00
2022-09-13T13:15:56.315Z,34912.00
2022-09-13T13:16:56.303Z,32064.00
2022-09-13T13:17:56.281Z,27872.00
2022-09-13T13:18:56.271Z,41792.00
2022-09-13T13:19:56.256Z,35776.00
2022-09-13T13:20:56.256Z,42880.00
2022-09-13T13:21:56.240Z,28384.00
2022-09-13T13:22:56.248Z,28032.00
2022-09-13T13:23:56.234Z,25824.00
2022-09-13T13:24:56.219Z,17920.00
2022-09-13T13:27:41.151Z,17408.00
2022-09-13T13:28:39.819Z,29856.00
2022-09-13T13:29:39.796Z,49696.00
2022-09-13T13:30:39.785Z,36864.00
2022-09-13T13:31:39.857Z,28512.00
2022-09-13T13:32:39.791Z,32448.00
2022-09-13T13:33:39.759Z,14852.00
2022-09-13T13:34:39.753Z,25472.00
2022-09-13T13:35:39.739Z,30336.00
2022-09-13T13:36:39.738Z,36256.00
2022-09-13T13:37:39.739Z,35968.00
2022-09-13T13:38:39.732Z,33856.00
2022-09-13T13:39:39.721Z,35104.00
2022-09-13T13:40:47.517Z,38080.00
2022-09-13T13:41:39.702Z,40128.00
2022-09-13T13:42:39.708Z,39744.00
2022-09-13T13:43:39.691Z,54944.00
2022-09-13T13:44:39.676Z,60960.00
2022-09-13T13:45:39.678Z,25056.00
2022-09-13T13:46:39.652Z,23808.00
2022-09-13T13:47:39.656Z,20928.00
2022-09-13T13:48:39.641Z,26464.00
2022-09-13T13:49:39.624Z,29952.00
2022-09-13T13:50:39.907Z,24608.00
2022-09-13T13:51:39.608Z,22688.00
2022-09-13T13:52:39.623Z,21824.00
2022-09-13T13:53:39.600Z,22464.00
2022-09-13T13:54:39.585Z,27296.00
2022-09-13T13:55:39.576Z,27488.00
2022-09-13T13:56:39.576Z,30592.00
2022-09-13T13:57:39.569Z,31616.00
2022-09-13T13:58:39.553Z,27328.00
2022-09-13T13:59:39.549Z,29760.00
2022-09-13T14:00:39.603Z,34592.00
2022-09-13T14:01:39.522Z,41440.00
2022-09-13T14:02:39.530Z,50272.00
2022-09-13T14:03:39.535Z,28384.00
2022-09-13T14:04:39.568Z,40640.00
2022-09-13T14:05:39.498Z,43584.00
2022-09-13T14:06:39.498Z,34816.00
2022-09-13T14:07:39.482Z,40416.00
2022-09-13T14:08:39.481Z,57600.00
2022-09-13T14:09:39.468Z,40384.00
2022-09-13T14:10:39.520Z,36032.00
2022-09-13T14:11:39.444Z,36672.00
2022-09-13T14:12:39.446Z,33120.00
2022-09-13T14:13:39.442Z,35776.00
2022-09-13T14:14:39.438Z,36288.00
2022-09-13T14:15:39.410Z,31104.00
2022-09-13T14:16:39.483Z,36128.00
2022-09-13T14:17:39.393Z,36928.00
2022-09-13T14:18:39.430Z,39776.00
2022-09-13T14:19:39.388Z,36960.00
2022-09-13T14:20:39.375Z,38848.00
2022-09-13T14:21:39.362Z,37760.00
2022-09-13T14:22:39.356Z,40064.00
2022-09-13T14:23:39.369Z,34208.00
2022-09-13T14:24:39.354Z,35232.00
2022-09-13T14:25:39.334Z,39520.00
2022-09-13T14:26:39.334Z,19712.00
2022-09-13T14:27:39.328Z,18848.00
2022-09-13T14:31:23.772Z,18592.00
2022-09-13T14:32:23.687Z,17824.00
2022-09-13T14:33:23.680Z,31744.00
2022-09-13T14:34:23.673Z,24064.00
2022-09-13T14:35:23.662Z,18560.00
2022-09-13T14:36:23.658Z,20960.00
2022-09-13T14:37:23.637Z,28448.00
2022-09-13T14:38:23.642Z,32704.00
2022-09-13T14:39:23.631Z,31520.00
2022-09-13T14:40:23.698Z,19968.00
2022-09-13T14:41:23.614Z,16672.00
